Time;durP1;ratioP1;P1;durP2;ratioP2;P2;SDS_P1;SDS_P2;PMS_P1;PMS_P2;Temp;Humidity;BMP_temperature;BMP_pressure;BME280_temperature;BME280_humidity;BME280_pressure;Samples;Min_cycle;Max_cycle;Signal;HPM_P1;HPM_P2
2023/11/14 00:00:30;;;;;;;16.02;10.05;;;;;;;6.86;62.55;95083.31;5012263;28;20029;-76
2023/11/14 00:02:55;;;;;;;16.50;9.70;;;;;;;6.89;62.59;95077.06;5026979;28;20092;-76
2023/11/14 00:05:21;;;;;;;15.77;10.20;;;;;;;6.88;62.54;95082.91;5012571;28;20038;-75
2023/11/14 00:07:46;;;;;;;16.42;9.40;;;;;;;6.83;62.63;95075.19;5011594;28;20113;-75
2023/11/14 00:10:12;;;;;;;16.05;8.95;;;;;;;6.82;62.61;95074.38;5008138;28;20038;-75
2023/11/14 00:12:37;;;;;;;17.23;9.07;;;;;;;6.76;62.94;95072.50;5006835;28;20033;-74
2023/11/14 00:15:03;;;;;;;14.38;9.00;;;;;;;6.78;63.03;95072.91;5011580;28;20074;-76
2023/11/14 00:17:29;;;;;;;15.48;9.75;;;;;;;6.72;63.03;95074.53;5021229;28;20079;-75
2023/11/14 00:19:55;;;;;;;23.23;10.40;;;;;;;6.65;63.31;95078.91;5040396;28;20034;-74
2023/11/14 00:22:20;;;;;;;19.33;10.52;;;;;;;6.58;63.16;95078.19;5014684;28;20140;-74
2023/11/14 00:24:47;;;;;;;19.10;9.45;;;;;;;6.57;63.04;95088.34;5007867;28;20514;-74
2023/11/14 00:27:13;;;;;;;16.40;8.60;;;;;;;6.54;63.04;95091.91;5021572;28;20029;-74
2023/11/14 00:29:38;;;;;;;13.13;9.63;;;;;;;6.50;63.04;95096.63;5010375;28;20182;-74
2023/11/14 00:32:04;;;;;;;16.88;9.75;;;;;;;6.45;62.81;95083.41;5022078;28;20053;-75
2023/11/14 00:34:30;;;;;;;16.08;10.25;;;;;;;6.45;63.14;95091.59;5019820;28;20033;-75
2023/11/14 00:36:55;;;;;;;17.17;10.60;;;;;;;6.38;63.39;95088.94;5010122;28;20117;-74
2023/11/14 00:39:20;;;;;;;19.85;11.45;;;;;;;6.33;63.34;95073.00;5011569;28;20108;-74
2023/11/14 00:41:52;;;;;;;18.27;12.48;;;;;;;6.24;64.16;95076.19;5026031;28;20628;-74
2023/11/14 00:44:17;;;;;;;21.42;13.30;;;;;;;6.28;64.11;95070.72;5021616;28;20126;-74
2023/11/14 00:46:42;;;;;;;21.98;11.63;;;;;;;6.29;64.19;95075.75;5007276;28;20133;-74
2023/11/14 00:49:08;;;;;;;22.33;11.57;;;;;;;6.27;64.05;95075.41;5007543;28;20087;-74
2023/11/14 00:51:34;;;;;;;19.35;11.07;;;;;;;6.25;63.86;95091.41;5038552;28;20441;-75
2023/11/14 00:53:59;;;;;;;18.45;11.23;;;;;;;6.24;63.66;95089.84;5009187;28;20022;-74
2023/11/14 00:56:25;;;;;;;17.27;9.90;;;;;;;6.22;63.54;95088.72;5017980;28;20087;-76
2023/11/14 00:58:51;;;;;;;16.83;10.13;;;;;;;6.21;63.43;95081.72;5006523;28;20109;-75
2023/11/14 01:01:18;;;;;;;14.63;9.82;;;;;;;6.10;63.40;95087.25;5007212;28;20034;-76
2023/11/14 01:03:43;;;;;;;19.77;10.82;;;;;;;6.14;63.90;95098.94;5037311;28;20057;-76
2023/11/14 01:06:09;;;;;;;17.88;10.75;;;;;;;6.08;64.12;95075.97;5021792;28;20083;-76
2023/11/14 01:08:35;;;;;;;18.38;11.05;;;;;;;6.06;64.39;95090.00;5005808;28;20113;-74
2023/11/14 01:11:01;;;;;;;15.18;10.02;;;;;;;6.09;64.35;95089.22;5038377;28;20417;-74
2023/11/14 01:13:26;;;;;;;16.15;9.70;;;;;;;6.11;64.46;95088.81;5006981;28;20033;-74
2023/11/14 01:15:52;;;;;;;17.77;10.18;;;;;;;6.04;64.39;95081.47;5022118;28;20437;-75
2023/11/14 01:18:17;;;;;;;13.18;8.48;;;;;;;6.05;64.28;95091.19;5009416;28;20547;-75
2023/11/14 01:20:43;;;;;;;16.83;8.77;;;;;;;6.08;63.91;95079.47;5008048;28;20584;-75
2023/11/14 01:23:08;;;;;;;13.68;9.10;;;;;;;6.08;63.89;95065.84;5006480;28;20586;-74
2023/11/14 01:25:34;;;;;;;14.98;9.57;;;;;;;6.01;64.30;95067.84;5036802;28;20038;-75
2023/11/14 01:27:59;;;;;;;23.13;11.60;;;;;;;5.97;64.29;95058.94;5008069;28;20029;-74
2023/11/14 01:30:25;;;;;;;18.00;11.45;;;;;;;6.04;64.21;95051.44;5040236;28;20100;-75
2023/11/14 01:32:50;;;;;;;17.25;10.13;;;;;;;6.07;64.60;95045.16;5017901;28;20412;-75
2023/11/14 01:35:15;;;;;;;16.88;8.80;;;;;;;6.05;64.14;95041.28;5040689;28;20044;-74
2023/11/14 01:37:41;;;;;;;15.68;8.30;;;;;;;6.05;64.18;95047.53;5016941;28;20026;-75
2023/11/14 01:40:07;;;;;;;10.55;7.38;;;;;;;5.98;64.19;95053.06;5017073;28;20025;-75
2023/11/14 01:42:32;;;;;;;14.02;8.45;;;;;;;5.95;64.56;95042.94;5040206;28;20511;-76
2023/11/14 01:44:58;;;;;;;15.85;9.57;;;;;;;5.86;65.89;95032.47;5024863;28;20079;-75
2023/11/14 01:47:26;;;;;;;14.85;8.45;;;;;;;6.06;65.63;95038.16;5009537;28;20394;-75
2023/11/14 01:49:51;;;;;;;16.58;8.88;;;;;;;6.09;65.47;95039.31;5014685;28;20040;-76
2023/11/14 01:52:17;;;;;;;17.38;9.40;;;;;;;5.95;66.27;95051.13;5009531;28;20451;-75
2023/11/14 01:54:43;;;;;;;14.73;9.48;;;;;;;5.95;65.69;95040.22;5038122;28;20069;-75
2023/11/14 01:57:12;;;;;;;15.50;9.45;;;;;;;5.92;65.63;95032.84;5047017;28;20404;-75
2023/11/14 01:59:38;;;;;;;14.20;9.40;;;;;;;5.99;65.63;95034.72;5060266;28;20060;-75
2023/11/14 02:02:04;;;;;;;14.07;8.35;;;;;;;5.96;64.96;95049.16;5032649;28;20041;-75
2023/11/14 02:04:32;;;;;;;18.45;9.82;;;;;;;5.91;65.12;95047.69;5020279;28;20021;-76
2023/11/14 02:06:58;;;;;;;12.50;8.50;;;;;;;5.85;65.13;95032.88;5019866;28;20022;-75
2023/11/14 02:09:25;;;;;;;11.73;7.50;;;;;;;5.91;64.34;95033.19;5036552;28;20076;-75
2023/11/14 02:11:51;;;;;;;15.20;9.60;;;;;;;5.95;65.53;95037.47;5037015;28;20535;-75
2023/11/14 02:14:17;;;;;;;13.77;8.73;;;;;;;5.94;65.53;95033.22;5036776;28;20038;-75
2023/11/14 02:16:53;;;;;;;14.45;8.77;;;;;;;5.91;64.88;95025.84;5005172;28;20026;-75
2023/11/14 02:19:18;;;;;;;13.07;8.55;;;;;;;5.93;65.50;95031.66;5015123;28;20073;-76
2023/11/14 02:21:44;;;;;;;12.25;7.97;;;;;;;5.96;65.26;95021.88;5025550;28;20474;-75
2023/11/14 02:24:15;;;;;;;14.02;7.75;;;;;;;6.00;65.07;95031.59;5038866;28;20111;-75
2023/11/14 02:26:42;;;;;;;19.60;8.45;;;;;;;5.92;64.28;95032.06;5008999;28;20040;-76
2023/11/14 02:29:08;;;;;;;13.82;8.40;;;;;;;5.85;64.18;95035.63;5028539;28;20515;-75
2023/11/14 02:31:33;;;;;;;12.13;7.82;;;;;;;5.86;64.22;95053.53;5009577;28;20113;-76
2023/11/14 02:33:59;;;;;;;13.15;8.15;;;;;;;5.82;64.48;95050.81;5041612;28;20037;-75
2023/11/14 02:36:24;;;;;;;15.00;8.77;;;;;;;5.80;64.53;95046.97;5027817;28;20061;-76
2023/11/14 02:38:49;;;;;;;14.98;7.45;;;;;;;5.78;64.62;95043.84;5042976;28;20037;-76
2023/11/14 02:41:15;;;;;;;13.23;8.40;;;;;;;5.82;64.66;95052.78;5027818;28;20462;-76
2023/11/14 02:43:41;;;;;;;13.15;8.68;;;;;;;5.83;64.57;95046.16;5028387;28;20053;-75
2023/11/14 02:46:07;;;;;;;15.30;8.95;;;;;;;5.69;64.57;95047.06;5044668;28;20049;-76
2023/11/14 02:48:32;;;;;;;16.50;8.48;;;;;;;5.72;64.70;95050.91;5012322;28;20033;-76
2023/11/14 02:50:58;;;;;;;15.23;8.80;;;;;;;5.73;64.78;95055.97;5009106;28;20404;-76
2023/11/14 02:53:23;;;;;;;13.88;8.77;;;;;;;5.63;64.90;95043.22;5025428;28;20124;-74
2023/11/14 02:55:50;;;;;;;14.40;8.40;;;;;;;5.69;65.11;95054.47;5008505;28;20441;-74
2023/11/14 02:58:16;;;;;;;17.52;9.48;;;;;;;5.68;65.12;95067.31;5008093;28;20132;-74
2023/11/14 03:00:48;;;;;;;16.02;9.15;;;;;;;5.67;65.22;95075.88;5007134;28;20084;-75
2023/11/14 03:03:14;;;;;;;13.93;9.63;;;;;;;5.62;65.25;95074.38;5015448;28;20037;-74
2023/11/14 03:05:39;;;;;;;14.93;9.05;;;;;;;5.62;65.53;95070.84;5052881;28;20052;-75
2023/11/14 03:08:05;;;;;;;16.95;9.60;;;;;;;5.59;65.27;95078.69;5028251;28;20033;-74
2023/11/14 03:10:30;;;;;;;16.15;9.32;;;;;;;5.52;65.65;95067.06;5015075;28;20029;-75
2023/11/14 03:12:57;;;;;;;16.42;9.40;;;;;;;5.53;65.57;95061.19;5018182;28;20030;-76
2023/11/14 03:15:22;;;;;;;19.00;11.35;;;;;;;5.50;65.98;95061.97;5023820;28;20040;-75
2023/11/14 03:17:47;;;;;;;19.10;11.00;;;;;;;5.50;65.71;95069.38;5006811;28;20034;-73
2023/11/14 03:20:13;;;;;;;17.45;11.10;;;;;;;5.55;65.36;95071.69;5040029;28;20042;-74
2023/11/14 03:22:38;;;;;;;17.40;10.77;;;;;;;5.52;65.70;95069.78;5007657;28;20064;-74
2023/11/14 03:25:04;;;;;;;21.48;11.32;;;;;;;5.51;65.56;95082.66;5040182;28;20116;-75
2023/11/14 03:27:29;;;;;;;17.45;10.40;;;;;;;5.49;65.45;95076.78;5022243;28;20463;-75
2023/11/14 03:29:55;;;;;;;19.05;10.80;;;;;;;5.51;65.96;95068.25;5008174;28;20026;-76
2023/11/14 03:32:20;;;;;;;15.73;10.20;;;;;;;5.42;66.61;95071.41;5008215;28;20463;-75
2023/11/14 03:34:45;;;;;;;16.73;9.43;;;;;;;5.38;66.54;95067.91;5010750;28;20041;-76
2023/11/14 03:37:11;;;;;;;17.67;9.68;;;;;;;5.42;66.22;95082.31;5009016;28;20034;-76
2023/11/14 03:39:39;;;;;;;17.67;9.40;;;;;;;5.39;66.40;95096.75;5007806;28;20033;-75
2023/11/14 03:42:05;;;;;;;18.00;9.68;;;;;;;5.31;66.33;95095.22;5023994;28;20037;-76
2023/11/14 03:44:30;;;;;;;16.90;9.52;;;;;;;5.29;66.26;95087.47;5016890;28;20510;-75
2023/11/14 03:46:56;;;;;;;15.90;9.52;;;;;;;5.27;66.17;95067.97;5015871;28;20029;-75
2023/11/14 03:49:21;;;;;;;16.65;9.48;;;;;;;5.30;65.96;95074.59;5007869;28;20042;-75
2023/11/14 03:51:46;;;;;;;13.63;9.18;;;;;;;5.33;65.93;95068.34;5039350;28;20110;-76
2023/11/14 03:54:12;;;;;;;15.45;8.90;;;;;;;5.29;65.94;95073.06;5008924;28;20034;-74
2023/11/14 03:56:37;;;;;;;14.68;9.57;;;;;;;5.27;66.37;95064.47;5007585;28;20591;-76
2023/11/14 03:59:03;;;;;;;16.90;8.77;;;;;;;5.30;66.45;95067.19;5012060;28;20141;-76
2023/11/14 04:01:28;;;;;;;15.90;8.73;;;;;;;5.31;66.27;95066.00;5009020;28;20476;-74
2023/11/14 04:03:54;;;;;;;17.88;9.48;;;;;;;5.26;66.34;95049.31;5036248;28;20463;-76
2023/11/14 04:06:19;;;;;;;13.90;8.35;;;;;;;5.29;66.28;95064.88;5015761;28;20033;-75
2023/11/14 04:08:44;;;;;;;13.23;8.93;;;;;;;5.29;66.27;95065.66;5061456;28;20039;-74
2023/11/14 04:11:12;;;;;;;15.93;9.70;;;;;;;5.26;66.25;95087.47;5023371;28;20034;-76
2023/11/14 04:13:38;;;;;;;15.32;9.80;;;;;;;5.18;66.50;95078.56;5042063;28;20041;-75
2023/11/14 04:16:04;;;;;;;23.42;10.98;;;;;;;5.17;66.45;95078.97;5026953;28;20389;-74
2023/11/14 04:18:29;;;;;;;21.10;11.18;;;;;;;5.14;66.59;95077.03;5025111;28;20108;-74
2023/11/14 04:20:55;;;;;;;25.65;11.90;;;;;;;5.11;66.47;95066.94;5027164;28;20042;-75
2023/11/14 04:23:20;;;;;;;18.70;12.65;;;;;;;5.14;66.47;95068.84;5024437;28;20476;-74
2023/11/14 04:25:46;;;;;;;17.75;10.20;;;;;;;5.17;66.32;95068.06;5008291;28;20072;-75
2023/11/14 04:28:12;;;;;;;17.70;10.15;;;;;;;5.12;66.64;95057.59;5007167;28;20404;-74
2023/11/14 04:30:37;;;;;;;19.00;9.52;;;;;;;5.17;66.35;95070.78;5038600;28;20053;-75
2023/11/14 04:33:02;;;;;;;15.85;9.48;;;;;;;5.13;66.52;95057.19;5021432;28;20033;-76
2023/11/14 04:35:29;;;;;;;20.17;10.68;;;;;;;5.07;66.37;95062.28;5010833;28;20417;-75
2023/11/14 04:37:56;;;;;;;18.60;10.23;;;;;;;5.06;66.57;95071.63;5042520;28;20404;-76
2023/11/14 04:40:22;;;;;;;19.88;10.18;;;;;;;5.07;66.73;95062.28;5025355;28;20048;-76
2023/11/14 04:42:48;;;;;;;16.55;9.95;;;;;;;5.11;66.64;95053.31;5017471;28;20029;-74
2023/11/14 04:45:13;;;;;;;14.68;9.73;;;;;;;5.09;66.51;95053.69;5006817;28;20030;-75
2023/11/14 04:47:39;;;;;;;23.45;10.75;;;;;;;5.12;66.34;95063.81;5011877;28;20143;-74
2023/11/14 04:50:05;;;;;;;23.83;11.85;;;;;;;5.05;66.38;95083.69;5054379;28;20029;-77
2023/11/14 04:52:30;;;;;;;19.98;11.32;;;;;;;5.02;66.51;95089.16;5022590;28;20033;-76
2023/11/14 04:54:56;;;;;;;24.70;13.68;;;;;;;4.96;66.40;95083.34;5007989;28;20038;-76
2023/11/14 04:57:21;;;;;;;24.58;14.25;;;;;;;4.98;66.20;95091.13;5006144;28;20582;-76
2023/11/14 04:59:47;;;;;;;26.35;15.25;;;;;;;4.92;66.22;95085.31;5038407;28;20034;-76
2023/11/14 05:02:14;;;;;;;23.48;15.55;;;;;;;4.94;66.01;95098.56;5005838;28;20087;-76
2023/11/14 05:04:39;;;;;;;24.23;14.82;;;;;;;4.93;66.02;95094.25;5008059;28;20069;-76
2023/11/14 05:07:04;;;;;;;21.88;15.32;;;;;;;4.88;65.99;95094.69;5034938;28;20121;-76
2023/11/14 05:09:33;;;;;;;20.15;14.38;;;;;;;4.88;65.88;95108.31;5038106;28;20453;-76
2023/11/14 05:11:58;;;;;;;22.35;13.88;;;;;;;4.78;66.16;95099.78;5023512;28;20480;-75
2023/11/14 05:14:23;;;;;;;20.80;13.30;;;;;;;4.78;65.93;95097.06;5034849;28;20052;-74
2023/11/14 05:16:49;;;;;;;20.42;12.10;;;;;;;4.71;66.17;95102.53;5007179;28;20071;-75
2023/11/14 05:19:14;;;;;;;19.08;12.00;;;;;;;4.72;66.08;95106.81;5019520;28;20079;-73
2023/11/14 05:21:40;;;;;;;15.73;11.63;;;;;;;4.72;66.04;95103.31;5009862;28;20481;-74
2023/11/14 05:24:08;;;;;;;18.13;11.77;;;;;;;4.78;65.83;95107.16;5007385;28;20069;-75
2023/11/14 05:26:33;;;;;;;18.27;11.25;;;;;;;4.75;65.82;95097.81;5025635;28;20041;-74
2023/11/14 05:28:59;;;;;;;19.35;12.77;;;;;;;4.74;66.38;95111.84;5024317;28;20393;-74
2023/11/14 05:31:25;;;;;;;19.15;11.88;;;;;;;4.74;66.50;95115.34;5015684;28;20117;-75
2023/11/14 05:33:51;;;;;;;23.38;13.32;;;;;;;4.76;66.41;95098.63;5039837;28;20055;-75
2023/11/14 05:36:16;;;;;;;18.08;12.40;;;;;;;4.74;66.70;95111.84;5022931;28;20037;-76
2023/11/14 05:38:41;;;;;;;18.85;12.65;;;;;;;4.71;66.88;95105.25;5007498;28;20040;-74
2023/11/14 05:41:07;;;;;;;19.83;12.60;;;;;;;4.77;66.95;95100.19;5021243;28;20105;-74
2023/11/14 05:43:32;;;;;;;24.42;12.77;;;;;;;4.77;66.84;95102.91;5024421;28;20032;-80
2023/11/14 05:45:58;;;;;;;19.70;13.25;;;;;;;4.77;67.05;95094.72;5032972;28;20054;-76
2023/11/14 05:48:23;;;;;;;20.98;13.43;;;;;;;4.76;67.05;95102.13;5006658;28;20135;-75
2023/11/14 05:50:49;;;;;;;24.17;12.95;;;;;;;4.82;66.98;95099.78;5039432;28;20053;-77
2023/11/14 05:53:18;;;;;;;24.65;14.30;;;;;;;4.80;67.04;95099.38;5009655;28;20041;-76
2023/11/14 05:55:43;;;;;;;25.10;14.23;;;;;;;4.83;67.08;95106.75;5008414;28;20069;-76
2023/11/14 05:58:10;;;;;;;26.63;15.05;;;;;;;4.86;67.06;95107.91;5018306;28;20140;-76
2023/11/14 06:00:35;;;;;;;23.15;14.63;;;;;;;4.90;67.42;95109.44;5038109;28;20038;-77
2023/11/14 06:03:01;;;;;;;30.95;15.90;;;;;;;4.94;67.26;95112.19;5025050;28;20033;-78
2023/11/14 06:05:26;;;;;;;24.95;15.32;;;;;;;4.96;66.93;95105.16;5016350;28;20037;-76
2023/11/14 06:07:51;;;;;;;24.52;13.82;;;;;;;5.05;67.35;95118.34;5005807;28;20105;-76
2023/11/14 06:10:17;;;;;;;24.25;15.40;;;;;;;5.10;67.47;95108.97;5006507;28;20042;-76
2023/11/14 06:12:43;;;;;;;27.55;15.60;;;;;;;5.12;67.15;95109.38;5018962;28;20444;-76
2023/11/14 06:15:09;;;;;;;29.15;16.33;;;;;;;5.11;67.58;95086.00;5013120;28;20125;-77
2023/11/14 06:17:35;;;;;;;25.58;16.65;;;;;;;5.17;67.51;95093.38;5035992;28;20034;-77
2023/11/14 06:20:00;;;;;;;29.75;18.38;;;;;;;5.25;67.23;95099.53;5027448;28;20038;-77
2023/11/14 06:22:26;;;;;;;28.98;17.05;;;;;;;5.35;67.06;95101.44;5006787;28;20041;-77
2023/11/14 06:24:51;;;;;;;29.33;16.58;;;;;;;5.30;66.91;95101.84;5006141;28;20060;-76
2023/11/14 06:27:16;;;;;;;27.95;16.67;;;;;;;5.34;67.00;95086.25;5011089;28;20065;-75
2023/11/14 06:29:42;;;;;;;30.10;16.15;;;;;;;5.40;66.93;95102.97;5028692;28;20040;-76
2023/11/14 06:32:07;;;;;;;26.05;16.58;;;;;;;5.50;67.05;95105.59;5044966;28;20331;-76
2023/11/14 06:34:33;;;;;;;27.15;17.55;;;;;;;5.54;66.77;95103.66;5026913;28;20033;-76
2023/11/14 06:36:59;;;;;;;33.10;18.50;;;;;;;5.62;66.48;95118.03;5024821;28;20034;-76
2023/11/14 06:39:24;;;;;;;31.75;18.27;;;;;;;5.67;66.46;95120.31;5041339;28;20452;-76
2023/11/14 06:41:50;;;;;;;35.63;18.23;;;;;;;5.79;66.28;95114.41;5024359;28;20083;-75
2023/11/14 06:44:18;;;;;;;33.35;18.75;;;;;;;5.92;66.06;95111.22;5041031;28;20034;-74
2023/11/14 06:46:45;;;;;;;36.75;21.42;;;;;;;5.99;65.65;95098.28;5058056;28;20078;-76
2023/11/14 06:49:10;;;;;;;34.60;20.33;;;;;;;6.12;65.54;95093.09;5043464;28;20446;-76
2023/11/14 06:51:35;;;;;;;38.10;20.55;;;;;;;6.22;65.32;95083.25;5044917;28;20055;-76
2023/11/14 06:54:01;;;;;;;36.10;20.35;;;;;;;6.29;65.36;95078.47;5044579;28;20080;-76
2023/11/14 06:56:26;;;;;;;40.38;20.48;;;;;;;6.42;65.00;95083.44;5045567;28;20021;-76
2023/11/14 06:58:52;;;;;;;38.90;23.02;;;;;;;6.53;64.55;95081.34;5044121;28;20033;-76
2023/11/14 07:01:17;;;;;;;39.70;25.02;;;;;;;6.63;64.27;95089.44;5026020;28;20025;-76
2023/11/14 07:03:43;;;;;;;45.88;25.77;;;;;;;6.74;64.12;95083.09;5024508;28;20018;-76
2023/11/14 07:06:09;;;;;;;44.22;25.70;;;;;;;6.89;63.96;95101.66;5025393;28;20098;-76
2023/11/14 07:08:35;;;;;;;48.17;27.52;;;;;;;7.06;63.62;95093.63;5028089;28;20025;-76
2023/11/14 07:11:00;;;;;;;43.45;25.08;;;;;;;7.18;63.09;95102.06;5028076;28;20059;-76
2023/11/14 07:13:25;;;;;;;41.20;25.08;;;;;;;7.33;62.87;95101.84;5028803;28;20034;-76
2023/11/14 07:15:51;;;;;;;40.33;25.08;;;;;;;7.51;62.55;95101.59;5027755;28;20029;-76
2023/11/14 07:18:17;;;;;;;40.85;26.60;;;;;;;7.66;62.12;95097.47;5029244;28;20029;-75
2023/11/14 07:20:42;;;;;;;43.20;27.02;;;;;;;7.83;61.93;95095.66;5042297;28;20042;-75
2023/11/14 07:23:08;;;;;;;49.10;27.23;;;;;;;8.04;61.15;95087.13;5027237;28;20026;-75
2023/11/14 07:25:38;;;;;;;43.10;27.73;;;;;;;8.25;60.76;95081.25;5022838;28;20411;-77
2023/11/14 07:28:04;;;;;;;44.05;28.35;;;;;;;8.50;60.04;95085.56;5018495;28;20021;-77
2023/11/14 07:30:31;;;;;;;40.72;26.50;;;;;;;8.76;59.39;95094.84;5040897;28;20034;-76
2023/11/14 07:32:56;;;;;;;45.28;25.70;;;;;;;9.07;58.07;95083.69;5043562;28;20059;-79
2023/11/14 07:35:21;;;;;;;37.80;24.23;;;;;;;9.42;57.49;95090.38;5020887;28;20622;-76
2023/11/14 07:37:48;;;;;;;38.13;24.55;;;;;;;9.85;56.26;95087.44;5010900;28;20029;-79
2023/11/14 07:40:13;;;;;;;36.72;23.25;;;;;;;10.28;54.94;95092.69;5043467;28;20076;-78
2023/11/14 07:42:38;;;;;;;38.83;23.02;;;;;;;10.78;53.85;95087.84;5039932;28;20032;-79
2023/11/14 07:45:06;;;;;;;38.55;21.50;;;;;;;11.48;51.61;95069.78;5062981;28;20032;-85
2023/11/14 07:47:32;;;;;;;39.10;21.05;;;;;;;12.33;50.04;95069.03;5028281;28;20032;-81
2023/11/14 07:49:57;;;;;;;35.40;21.67;;;;;;;13.49;47.32;95076.41;5023541;28;20097;-77
2023/11/14 07:52:22;;;;;;;37.22;20.83;;;;;;;15.04;43.41;95072.47;5053930;28;20428;-74
2023/11/14 07:54:49;;;;;;;28.17;19.77;;;;;;;16.39;40.04;95077.28;5047136;28;20021;-77
2023/11/14 07:57:15;;;;;;;26.38;18.13;;;;;;;17.39;38.37;95086.09;5031819;28;20088;-75
2023/11/14 07:59:41;;;;;;;27.98;17.67;;;;;;;18.18;36.64;95090.97;5027226;28;20071;-75
2023/11/14 08:02:06;;;;;;;29.73;18.45;;;;;;;18.97;34.81;95094.81;5020387;28;20484;-75
2023/11/14 08:04:32;;;;;;;28.15;17.52;;;;;;;19.69;33.69;95100.44;5011455;28;20034;-76
2023/11/14 08:06:57;;;;;;;24.30;18.40;;;;;;;20.34;32.38;95089.53;5007760;28;20028;-76
2023/11/14 08:09:23;;;;;;;25.88;18.77;;;;;;;21.05;30.89;95072.94;5039918;28;20444;-75
2023/11/14 08:11:48;;;;;;;26.38;18.20;;;;;;;21.71;30.01;95074.38;5042557;28;20021;-75
2023/11/14 08:14:14;;;;;;;29.77;19.35;;;;;;;22.22;29.03;95068.81;5017692;28;20087;-76
2023/11/14 08:16:40;;;;;;;29.30;18.83;;;;;;;22.77;28.43;95059.53;5022591;28;20041;-76
2023/11/14 08:19:05;;;;;;;25.83;19.63;;;;;;;23.24;27.48;95056.81;5025299;28;20037;-76
2023/11/14 08:21:31;;;;;;;27.00;18.15;;;;;;;23.64;27.09;95060.19;5023323;28;20038;-76
2023/11/14 08:23:56;;;;;;;24.38;16.75;;;;;;;24.06;26.34;95056.03;5029834;28;20479;-76
2023/11/14 08:26:22;;;;;;;21.45;14.90;;;;;;;24.48;25.70;95045.44;5038962;28;20516;-76
2023/11/14 08:28:48;;;;;;;21.75;14.13;;;;;;;25.04;24.95;95044.81;5022428;28;20071;-76
2023/11/14 08:31:14;;;;;;;19.80;13.70;;;;;;;25.54;24.26;95040.59;5023157;28;20034;-76
2023/11/14 08:33:42;;;;;;;16.92;12.52;;;;;;;26.05;23.42;95054.69;5024685;28;20389;-76
2023/11/14 08:36:07;;;;;;;16.25;12.13;;;;;;;26.67;22.56;95050.84;5020482;28;20112;-75
2023/11/14 08:38:34;;;;;;;17.65;12.05;;;;;;;26.94;22.44;95060.06;5010823;28;20228;-75
2023/11/14 08:41:01;;;;;;;18.27;12.32;;;;;;;27.65;21.50;95050.63;5041160;28;20029;-75
2023/11/14 08:43:27;;;;;;;16.08;10.88;;;;;;;28.26;20.76;95061.78;5021968;28;20112;-76
2023/11/14 08:45:54;;;;;;;16.08;9.95;;;;;;;28.89;20.06;95064.56;5017256;28;20101;-76
2023/11/14 08:48:19;;;;;;;17.27;10.07;;;;;;;29.30;19.70;95070.09;5007448;28;20022;-76
2023/11/14 08:50:45;;;;;;;20.40;9.77;;;;;;;29.74;19.42;95060.88;5006728;28;20544;-76
2023/11/14 08:53:10;;;;;;;18.52;10.68;;;;;;;30.14;18.81;95070.44;5038894;28;20026;-76
2023/11/14 08:55:36;;;;;;;15.13;10.20;;;;;;;30.51;18.25;95056.09;5006376;28;20026;-77
2023/11/14 08:58:01;;;;;;;14.07;9.82;;;;;;;30.81;18.31;95066.72;5007513;28;20541;-77
2023/11/14 09:00:27;;;;;;;15.10;9.60;;;;;;;31.27;17.75;95070.25;5006452;28;20041;-76
2023/11/14 09:02:52;;;;;;;17.50;10.45;;;;;;;31.91;17.42;95070.94;5007225;28;20025;-76
2023/11/14 09:05:18;;;;;;;15.85;10.38;;;;;;;32.67;16.54;95069.69;5006752;28;20113;-76
2023/11/14 09:07:44;;;;;;;14.32;9.65;;;;;;;32.47;16.57;95063.78;5006427;28;20415;-76
2023/11/14 09:10:11;;;;;;;13.45;8.88;;;;;;;31.95;17.07;95054.25;5007082;28;20022;-76
2023/11/14 09:12:36;;;;;;;17.05;9.73;;;;;;;32.35;16.46;95053.44;5037765;28;20030;-76
2023/11/14 09:15:05;;;;;;;10.38;8.23;;;;;;;33.12;16.01;95056.38;5007285;28;20085;-76
2023/11/14 09:17:31;;;;;;;12.70;8.40;;;;;;;33.50;15.51;95051.06;5006072;28;20026;-76
2023/11/14 09:19:56;;;;;;;10.50;8.38;;;;;;;33.79;15.31;95053.34;5007154;28;20070;-76
2023/11/14 09:22:25;;;;;;;14.07;8.52;;;;;;;33.98;15.54;95062.03;5037420;28;20118;-77
2023/11/14 09:24:51;;;;;;;15.65;7.85;;;;;;;34.14;14.86;95056.13;5006458;28;20033;-77
2023/11/14 09:27:17;;;;;;;11.23;7.38;;;;;;;34.55;14.45;95051.53;5006453;28;20428;-76
2023/11/14 09:29:42;;;;;;;13.38;6.90;;;;;;;34.81;14.41;95058.50;5004636;28;20022;-74
2023/11/14 09:32:08;;;;;;;14.07;7.22;;;;;;;35.10;14.12;95050.03;5006767;28;20022;-76
2023/11/14 09:34:33;;;;;;;9.25;6.68;;;;;;;34.94;14.20;95046.69;5005779;28;20427;-76
2023/11/14 09:36:59;;;;;;;10.70;6.10;;;;;;;34.68;14.47;95047.50;5007034;28;20022;-76
2023/11/14 09:39:24;;;;;;;9.13;6.00;;;;;;;34.67;14.18;95046.75;5005908;28;20034;-76
2023/11/14 09:41:50;;;;;;;8.70;5.65;;;;;;;35.11;14.31;95037.25;5006622;28;20026;-76
2023/11/14 09:44:15;;;;;;;9.50;6.43;;;;;;;35.29;14.11;95030.06;5006173;28;20500;-77
2023/11/14 09:46:42;;;;;;;12.40;8.00;;;;;;;35.57;13.90;95025.72;5004452;28;20033;-76
2023/11/14 09:49:08;;;;;;;12.23;6.57;;;;;;;35.51;13.64;95025.25;5006654;28;20034;-76
2023/11/14 09:51:35;;;;;;;10.63;6.38;;;;;;;35.52;14.15;95023.91;5005398;28;20069;-76
2023/11/14 09:54:02;;;;;;;12.90;5.70;;;;;;;35.78;13.49;95024.31;5006733;28;20053;-76
2023/11/14 09:56:27;;;;;;;11.70;5.15;;;;;;;35.85;13.53;95015.59;5004392;28;20022;-76
2023/11/14 09:58:55;;;;;;;11.55;5.78;;;;;;;36.29;13.17;95019.38;5006815;28;20448;-76
2023/11/14 10:01:21;;;;;;;9.68;6.00;;;;;;;36.16;13.38;95009.19;5005910;28;20057;-76
2023/11/14 10:03:47;;;;;;;8.88;5.80;;;;;;;36.25;13.27;95002.69;5037788;28;20489;-76
2023/11/14 10:06:12;;;;;;;7.88;5.07;;;;;;;36.45;13.00;94997.66;5006444;28;20030;-76
2023/11/14 10:08:38;;;;;;;10.88;5.38;;;;;;;36.47;12.78;95005.63;5005387;28;20469;-76
2023/11/14 10:11:05;;;;;;;9.07;5.05;;;;;;;36.40;12.72;94990.13;5006532;28;20057;-76
2023/11/14 10:13:30;;;;;;;8.80;5.28;;;;;;;36.41;12.76;94980.19;5003658;28;20558;-76
2023/11/14 10:16:20;;;;;;;9.50;5.90;;;;;;;36.15;12.96;94979.09;5006683;28;20505;-76
2023/11/14 10:18:50;;;;;;;11.75;7.45;;;;;;;35.98;12.77;94974.31;5037604;28;20057;-75
2023/11/14 10:21:28;;;;;;;10.05;7.32;;;;;;;35.67;13.35;94979.19;5005130;28;20077;-76
2023/11/14 10:23:56;;;;;;;9.93;7.72;;;;;;;35.49;13.47;94967.94;5006147;28;20057;-76
2023/11/14 10:26:23;;;;;;;11.88;7.35;;;;;;;35.29;13.50;94949.31;5036604;28;20216;-76
2023/11/14 10:28:55;;;;;;;12.07;7.47;;;;;;;34.99;13.89;94945.72;5037996;28;20156;-76
2023/11/14 10:31:36;;;;;;;;;;;;;;;34.80;13.82;94951.38;5005518;28;20100;-75
2023/11/14 10:34:06;;;;;;;12.48;8.00;;;;;;;34.28;14.82;94937.44;5005659;28;19914;-75
2023/11/14 10:36:48;;;;;;;13.02;7.70;;;;;;;34.51;14.51;94922.78;5005586;28;20408;-76
2023/11/14 10:39:14;;;;;;;12.25;7.00;;;;;;;34.85;14.07;94913.19;5037082;28;20022;-75
2023/11/14 10:41:39;;;;;;;9.52;5.95;;;;;;;35.47;13.68;94912.75;5006386;28;20506;-76
2023/11/14 10:44:09;;;;;;;11.63;6.50;;;;;;;36.03;13.52;94910.31;5040390;28;20125;-76
2023/11/14 10:46:35;;;;;;;9.70;6.63;;;;;;;36.57;12.81;94900.41;5009737;28;20080;-76
2023/11/14 10:49:08;;;;;;;9.85;6.57;;;;;;;36.16;12.98;94894.75;5009377;28;20026;-76
2023/11/14 10:51:38;;;;;;;9.98;6.30;;;;;;;36.16;12.96;94892.63;5008985;28;20026;-76
2023/11/14 10:54:06;;;;;;;9.75;6.88;;;;;;;36.32;12.92;94890.16;5040416;28;20030;-76
2023/11/14 10:56:38;;;;;;;12.52;7.40;;;;;;;37.53;12.38;94898.13;5008845;28;20050;-75
2023/11/14 10:59:12;;;;;;;11.85;6.90;;;;;;;37.11;12.17;94889.00;5009879;28;20045;-75
2023/11/14 11:01:39;;;;;;;13.30;6.93;;;;;;;37.45;12.04;94878.25;5040560;28;20026;-75
2023/11/14 11:04:05;;;;;;;10.65;6.72;;;;;;;37.88;11.81;94866.63;5041128;28;20046;-76
2023/11/14 11:06:31;;;;;;;11.77;6.63;;;;;;;37.88;12.09;94847.31;5009036;28;20453;-75
2023/11/14 11:08:57;;;;;;;12.10;6.82;;;;;;;36.89;12.42;94835.97;5040640;28;20025;-75
2023/11/14 11:11:29;;;;;;;8.63;6.50;;;;;;;36.39;12.79;94834.81;5009568;28;20053;-75
2023/11/14 11:13:56;;;;;;;12.88;6.38;;;;;;;34.86;13.90;94841.22;5039978;28;20030;-75
2023/11/14 11:16:43;;;;;;;13.13;6.53;;;;;;;33.68;15.10;94837.28;5041155;28;20066;-74
2023/11/14 11:19:11;;;;;;;10.60;6.32;;;;;;;33.48;15.14;94828.63;5008736;28;20022;-76
2023/11/14 11:21:37;;;;;;;11.98;6.40;;;;;;;33.61;15.04;94826.72;5006959;28;20053;-76